EGUB

RAF Benson Airport

Benson, United Kingdom
METAR EGUB 190450Z AUTO 19012KT 9999 // FEW014/// 17/15 Q1010
Observed Flight Rules
Sep-19 @ 04:50 UTC (23 minutes ago) Visual Flight Rules
Wind Visibility Clouds
190° at 12 knots 10,000+ meters
  • Few at 1,400' AGL
Temperatures Readings
Current 17°C / 63°F
Dewpoint 15°C / 59°F
Humidity 88%
Altimeter 29.82" Hg
Pressure 1010 hPa
Elevation 63
METAR EGUB 190450Z AUTO 19012KT 9999 // FEW014/// 17/15 Q1010
Observed Flight Rules
Sep-19 @ 04:50 UTC
(23 minutes ago)
VFR
Wind Visibility
190° at 12 knots 10,000+ meters
Clouds
  • Few at 1,400' AGL
Temperature Dewpoint
17°C / 63°F 15°C / 59°F
Humidity Altimeter Pressure
88% 29.82" Hg 1010 hPa